Time;durP1;ratioP1;P1;durP2;ratioP2;P2;SDS_P1;SDS_P2;PMS_P1;PMS_P2;Temp;Humidity;BMP_temperature;BMP_pressure;BME280_temperature;BME280_humidity;BME280_pressure;Samples;Min_cycle;Max_cycle;Signal;HPM_P1;HPM_P2
2022/05/27 00:01:33;;;;;;;4.43;1.97;;;16.00;99.90;;;;;;5026881;28;20266;-64
2022/05/27 00:04:03;;;;;;;4.70;1.80;;;15.90;99.90;;;;;;5032996;28;20251;-64
2022/05/27 00:06:30;;;;;;;3.33;2.20;;;15.90;99.90;;;;;;5027832;28;20192;-64
2022/05/27 00:08:58;;;;;;;3.63;2.00;;;15.90;99.90;;;;;;5026060;28;20207;-64
2022/05/27 00:11:25;;;;;;;3.50;1.80;;;15.80;99.90;;;;;;5021007;28;20273;-64
2022/05/27 00:13:52;;;;;;;4.77;1.80;;;15.90;99.90;;;;;;5018727;28;20211;-65
2022/05/27 00:16:19;;;;;;;5.33;2.10;;;15.80;99.90;;;;;;5025136;28;20218;-66
2022/05/27 00:18:46;;;;;;;3.60;1.90;;;15.70;99.90;;;;;;5025698;28;20692;-65
2022/05/27 00:21:13;;;;;;;4.73;2.00;;;15.70;99.90;;;;;;5023327;28;20223;-65
2022/05/27 00:23:40;;;;;;;4.13;1.87;;;15.80;99.90;;;;;;5025013;28;20195;-65
2022/05/27 00:26:07;;;;;;;3.10;1.80;;;15.70;99.90;;;;;;5027333;28;20203;-65
2022/05/27 00:28:34;;;;;;;3.03;2.00;;;15.80;99.90;;;;;;5025025;28;20203;-68
2022/05/27 00:31:03;;;;;;;5.30;1.90;;;15.80;99.90;;;;;;5020296;28;20290;-68
2022/05/27 00:33:30;;;;;;;2.57;1.70;;;15.80;99.90;;;;;;5022626;28;20279;-68
2022/05/27 00:35:57;;;;;;;4.07;2.00;;;15.80;99.90;;;;;;5021394;28;20233;-65
2022/05/27 00:38:23;;;;;;;5.90;2.20;;;15.70;99.90;;;;;;5027631;28;20196;-65
2022/05/27 00:40:55;;;;;;;4.50;1.80;;;15.80;99.90;;;;;;5022721;28;20235;-65
2022/05/27 00:43:22;;;;;;;4.23;2.07;;;15.80;99.90;;;;;;5024816;28;20207;-65
2022/05/27 00:46:17;;;;;;;2.90;1.60;;;15.80;99.90;;;;;;5023036;28;20299;-65
2022/05/27 00:48:47;;;;;;;3.73;2.10;;;15.70;99.90;;;;;;5020692;28;20196;-65
2022/05/27 00:51:22;;;;;;;3.77;2.00;;;15.80;99.90;;;;;;5024326;28;20207;-65
2022/05/27 00:54:01;;;;;;;3.77;1.87;;;15.70;99.90;;;;;;5024401;28;20226;-65
2022/05/27 00:56:31;;;;;;;4.60;2.23;;;15.70;99.90;;;;;;5022021;28;20670;-65
2022/05/27 00:59:02;;;;;;;4.13;2.10;;;15.70;99.90;;;;;;5017676;28;20203;-66
2022/05/27 01:01:29;;;;;;;2.00;1.80;;;15.60;99.90;;;;;;5016635;28;20219;-66
2022/05/27 01:03:57;;;;;;;4.93;1.50;;;15.70;99.90;;;;;;5022078;28;20233;-68
2022/05/27 01:06:24;;;;;;;5.97;2.27;;;15.60;99.90;;;;;;5023447;28;20192;-64
2022/05/27 01:08:52;;;;;;;7.23;2.10;;;15.50;99.90;;;;;;5023839;28;20198;-64
2022/05/27 01:11:41;;;;;;;3.53;2.00;;;15.50;99.90;;;;;;5020036;28;20215;-64
2022/05/27 01:14:14;;;;;;;7.20;1.93;;;15.50;99.90;;;;;;5023485;28;20219;-64
2022/05/27 01:16:56;;;;;;;2.60;1.90;;;15.50;99.90;;;;;;5024617;28;20208;-64
2022/05/27 01:20:30;;;;;;;3.33;1.90;;;15.40;99.90;;;;;;5022537;28;20203;-64
2022/05/27 01:22:51;;;;;;;4.27;2.10;;;15.30;99.90;;;;;;5020088;28;20646;-64
2022/05/27 01:25:24;;;;;;;3.47;1.90;;;15.20;99.90;;;;;;5024452;28;20226;-64
2022/05/27 01:28:01;;;;;;;3.47;2.10;;;15.10;99.90;;;;;;5022440;28;20211;-64
2022/05/27 01:30:36;;;;;;;5.03;2.17;;;15.10;99.90;;;;;;5022314;28;20211;-64
2022/05/27 01:33:13;;;;;;;2.83;2.17;;;15.00;99.90;;;;;;5023886;28;20206;-64
2022/05/27 01:35:58;;;;;;;3.97;2.07;;;14.90;99.90;;;;;;5021273;28;20219;-64
2022/05/27 01:38:36;;;;;;;3.67;2.20;;;14.90;99.90;;;;;;5022027;28;20206;-64
2022/05/27 01:41:08;;;;;;;4.07;2.17;;;14.80;99.90;;;;;;5027457;28;20681;-64
2022/05/27 01:43:41;;;;;;;4.17;2.20;;;14.80;99.90;;;;;;5021133;28;20250;-64
2022/05/27 01:46:25;;;;;;;4.57;2.23;;;14.80;99.90;;;;;;5026244;28;20196;-64
2022/05/27 01:49:20;;;;;;;5.33;2.33;;;14.70;99.90;;;;;;5021764;28;20204;-64
2022/05/27 01:51:56;;;;;;;2.73;2.10;;;14.70;99.90;;;;;;5022480;28;20282;-64
2022/05/27 01:54:45;;;;;;;3.73;2.30;;;14.70;99.90;;;;;;5022991;28;20310;-66
2022/05/27 01:57:17;;;;;;;3.63;2.23;;;14.60;99.90;;;;;;5015657;28;20210;-65
2022/05/27 02:00:02;;;;;;;5.30;2.20;;;14.50;99.90;;;;;;5023747;28;20192;-65
2022/05/27 02:02:31;;;;;;;4.43;2.53;;;14.50;99.90;;;;;;5025314;28;20231;-65
2022/05/27 02:05:06;;;;;;;3.63;2.60;;;14.50;99.90;;;;;;5022218;28;20570;-64
2022/05/27 02:07:54;;;;;;;3.20;2.40;;;14.60;99.90;;;;;;5027146;28;20203;-64
2022/05/27 02:10:27;;;;;;;3.33;2.20;;;14.60;99.90;;;;;;5021249;28;20655;-64
2022/05/27 02:12:58;;;;;;;2.97;2.03;;;14.60;99.90;;;;;;5028702;28;20199;-64
2022/05/27 02:15:37;;;;;;;3.40;2.20;;;14.70;99.90;;;;;;5026338;28;20242;-64
2022/05/27 02:18:29;;;;;;;7.63;2.20;;;14.70;99.90;;;;;;5024989;28;20200;-64
2022/05/27 02:21:16;;;;;;;4.03;2.57;;;14.90;99.90;;;;;;5026177;28;20226;-64
2022/05/27 02:23:50;;;;;;;3.77;2.60;;;15.00;99.90;;;;;;5026612;28;20198;-64
2022/05/27 02:26:21;;;;;;;3.40;2.43;;;15.10;99.90;;;;;;5027553;28;20196;-64
2022/05/27 02:29:02;;;;;;;3.57;2.50;;;15.10;99.90;;;;;;5027306;28;20207;-64
2022/05/27 02:31:32;;;;;;;4.90;2.37;;;15.20;99.90;;;;;;5015218;28;20200;-64
2022/05/27 02:36:59;;;;;;;4.57;2.60;;;15.30;99.90;;;;;;5023978;28;20585;-65
2022/05/27 02:39:27;;;;;;;4.53;2.77;;;15.40;99.90;;;;;;5027487;28;20557;-65
2022/05/27 02:41:59;;;;;;;4.83;2.70;;;15.40;99.90;;;;;;5028993;28;20697;-66
2022/05/27 02:44:36;;;;;;;5.23;2.50;;;15.60;99.90;;;;;;5019875;28;20212;-66
2022/05/27 02:47:18;;;;;;;3.57;2.50;;;15.80;99.90;;;;;;5017433;28;20200;-65
2022/05/27 02:50:15;;;;;;;3.97;2.77;;;15.80;99.90;;;;;;5022383;28;20195;-65
2022/05/27 02:53:04;;;;;;;4.63;2.50;;;15.70;99.90;;;;;;5028121;28;20206;-65
2022/05/27 02:56:03;;;;;;;4.70;2.50;;;15.60;99.90;;;;;;5021774;28;20227;-66
2022/05/27 02:58:31;;;;;;;3.83;2.73;;;15.40;99.90;;;;;;5023320;28;20718;-65
2022/05/27 03:00:57;;;;;;;6.00;2.83;;;15.30;99.90;;;;;;5026724;28;20696;-65
2022/05/27 03:03:24;;;;;;;3.43;2.53;;;15.20;99.90;;;;;;5021688;28;20199;-65
2022/05/27 03:06:27;;;;;;;4.27;2.80;;;15.20;99.90;;;;;;5025389;28;20216;-65
2022/05/27 03:09:38;;;;;;;4.57;2.90;;;15.20;99.90;;;;;;5027323;28;20187;-65
2022/05/27 03:12:24;;;;;;;3.67;3.00;;;15.10;99.90;;;;;;5018976;28;20223;-66
2022/05/27 03:15:31;;;;;;;4.13;2.87;;;15.00;99.90;;;;;;5026457;28;20219;-66
2022/05/27 03:18:13;;;;;;;5.07;2.70;;;15.10;99.90;;;;;;5027504;28;20218;-65
2022/05/27 03:20:59;;;;;;;3.47;2.60;;;15.10;99.90;;;;;;5026762;28;20654;-65
2022/05/27 03:23:48;;;;;;;5.37;2.93;;;15.10;99.90;;;;;;5022905;28;20195;-65
2022/05/27 03:26:46;;;;;;;8.07;3.17;;;15.00;99.90;;;;;;5023378;28;20203;-65
2022/05/27 03:29:41;;;;;;;5.90;2.90;;;14.90;99.90;;;;;;5025764;28;20195;-65
2022/05/27 03:32:27;;;;;;;5.10;2.87;;;14.80;99.90;;;;;;5024437;28;20200;-65
2022/05/27 03:35:02;;;;;;;4.13;2.60;;;14.90;99.90;;;;;;5030417;28;20594;-65
2022/05/27 03:37:35;;;;;;;4.53;2.90;;;14.90;99.90;;;;;;5023686;28;20199;-65
2022/05/27 03:40:04;;;;;;;5.07;2.80;;;15.00;99.90;;;;;;5020397;28;20204;-66
2022/05/27 03:42:34;;;;;;;5.70;2.73;;;14.90;99.90;;;;;;5026789;28;20227;-65
2022/05/27 03:45:17;;;;;;;3.37;2.67;;;15.00;99.90;;;;;;5025567;28;20636;-66
2022/05/27 03:47:45;;;;;;;3.50;2.30;;;15.10;99.90;;;;;;5034877;28;20200;-66
2022/05/27 03:50:16;;;;;;;3.00;2.60;;;15.10;99.90;;;;;;5025471;28;20207;-65
2022/05/27 03:52:47;;;;;;;4.30;2.40;;;15.10;99.90;;;;;;5019845;28;20614;-66
2022/05/27 03:55:17;;;;;;;4.87;2.40;;;15.20;99.90;;;;;;5022786;28;20590;-65
2022/05/27 03:57:44;;;;;;;4.97;2.60;;;15.30;99.90;;;;;;5025731;28;20225;-66
2022/05/27 04:00:13;;;;;;;4.00;2.47;;;15.40;99.90;;;;;;5027828;28;20207;-65
2022/05/27 04:02:40;;;;;;;5.00;2.40;;;15.40;99.90;;;;;;5022855;28;20219;-65
2022/05/27 04:05:09;;;;;;;4.20;2.67;;;15.50;99.90;;;;;;5026207;28;20219;-66
2022/05/27 04:07:35;;;;;;;4.37;2.57;;;15.50;99.90;;;;;;5026161;28;20221;-66
2022/05/27 04:10:03;;;;;;;4.57;2.37;;;15.60;99.90;;;;;;5025986;28;20471;-66
2022/05/27 04:12:30;;;;;;;3.30;2.30;;;15.60;99.90;;;;;;5024798;28;20638;-65
2022/05/27 04:14:56;;;;;;;4.03;2.50;;;15.70;99.90;;;;;;5021858;28;20216;-66
2022/05/27 04:17:33;;;;;;;4.90;2.50;;;15.80;99.90;;;;;;5026699;28;20210;-65
2022/05/27 04:20:05;;;;;;;4.00;2.40;;;15.90;99.90;;;;;;5022528;28;20670;-66
2022/05/27 04:22:31;;;;;;;2.50;2.30;;;16.00;99.90;;;;;;5017045;28;20226;-65
2022/05/27 04:24:58;;;;;;;4.60;2.50;;;16.10;99.90;;;;;;5018833;28;20211;-66
2022/05/27 04:27:26;;;;;;;4.07;2.90;;;16.10;99.90;;;;;;5023264;28;20291;-65
2022/05/27 04:29:53;;;;;;;4.43;2.47;;;16.10;99.90;;;;;;5024183;28;20589;-66
2022/05/27 04:32:21;;;;;;;3.90;2.53;;;16.20;99.90;;;;;;5024373;28;20211;-66
2022/05/27 04:34:49;;;;;;;2.87;2.27;;;16.30;99.90;;;;;;5019210;28;20301;-65
2022/05/27 04:37:18;;;;;;;3.30;2.30;;;16.30;99.90;;;;;;5024857;28;20203;-65
2022/05/27 04:39:45;;;;;;;3.27;2.63;;;16.40;99.90;;;;;;5025949;28;20565;-65
2022/05/27 04:42:12;;;;;;;3.83;2.30;;;16.50;99.90;;;;;;5021819;28;20227;-65
2022/05/27 04:44:39;;;;;;;5.30;2.27;;;16.50;99.90;;;;;;5025387;28;20226;-66
2022/05/27 04:47:07;;;;;;;3.40;2.43;;;16.60;99.90;;;;;;5022675;28;20550;-65
2022/05/27 04:49:54;;;;;;;3.60;2.10;;;16.60;99.90;;;;;;5022973;28;20557;-65
2022/05/27 04:52:27;;;;;;;4.83;2.50;;;16.80;99.90;;;;;;5021518;28;20207;-66
2022/05/27 04:54:55;;;;;;;2.90;2.30;;;16.90;99.90;;;;;;5023942;28;20219;-66
2022/05/27 04:57:27;;;;;;;2.63;2.10;;;17.10;99.90;;;;;;5025885;28;20202;-67
2022/05/27 04:59:54;;;;;;;3.93;2.27;;;17.20;99.90;;;;;;5025180;28;20202;-67
2022/05/27 05:02:21;;;;;;;6.13;2.53;;;17.30;99.90;;;;;;5017690;28;20220;-66
2022/05/27 05:04:49;;;;;;;3.87;2.30;;;17.50;99.90;;;;;;5023945;28;20218;-67
2022/05/27 05:07:16;;;;;;;2.20;1.80;;;17.40;99.90;;;;;;5028392;28;20203;-66
2022/05/27 05:09:43;;;;;;;4.17;1.90;;;17.40;99.90;;;;;;5020323;28;20570;-66
2022/05/27 05:12:12;;;;;;;3.73;2.53;;;17.50;99.90;;;;;;5024139;28;20680;-66
2022/05/27 05:14:39;;;;;;;2.73;1.70;;;17.60;99.90;;;;;;5024028;28;20580;-66
2022/05/27 05:17:07;;;;;;;4.07;1.60;;;17.70;99.90;;;;;;5025356;28;20195;-66
2022/05/27 05:19:35;;;;;;;4.90;2.17;;;17.50;99.90;;;;;;5027202;28;20721;-66
2022/05/27 05:22:02;;;;;;;2.83;1.70;;;17.40;99.90;;;;;;5020866;28;20727;-67
2022/05/27 05:24:29;;;;;;;1.80;1.47;;;17.50;99.90;;;;;;5020490;28;20207;-66
2022/05/27 05:26:56;;;;;;;2.33;1.77;;;17.50;99.90;;;;;;5022447;28;20583;-66
2022/05/27 05:29:22;;;;;;;3.00;1.60;;;17.60;99.90;;;;;;5024949;28;20206;-65
2022/05/27 05:31:49;;;;;;;2.50;1.60;;;17.60;99.90;;;;;;5022256;28;20196;-66
2022/05/27 05:34:16;;;;;;;2.47;1.50;;;17.60;99.90;;;;;;5021812;28;20220;-66
2022/05/27 05:36:42;;;;;;;2.47;1.90;;;17.50;99.90;;;;;;5026795;28;20565;-65
2022/05/27 05:39:09;;;;;;;1.60;1.50;;;17.60;99.90;;;;;;5023827;28;20214;-66
2022/05/27 05:41:39;;;;;;;3.53;1.37;;;17.60;99.90;;;;;;5019425;28;20226;-66
2022/05/27 05:44:08;;;;;;;4.83;1.50;;;17.60;99.90;;;;;;5022745;28;20211;-66
2022/05/27 05:46:37;;;;;;;2.23;1.57;;;17.60;99.90;;;;;;5026406;28;20663;-66
2022/05/27 05:49:07;;;;;;;1.60;1.30;;;17.70;99.90;;;;;;5022299;28;20206;-66
2022/05/27 05:51:34;;;;;;;3.13;1.53;;;17.70;99.90;;;;;;5026678;28;20200;-65
2022/05/27 05:54:01;;;;;;;1.80;1.40;;;17.60;99.90;;;;;;5030873;28;20223;-66
2022/05/27 05:56:30;;;;;;;2.03;1.60;;;17.50;99.90;;;;;;5026375;28;20234;-66
2022/05/27 05:58:58;;;;;;;2.90;1.50;;;17.50;99.90;;;;;;5029896;28;20196;-66
2022/05/27 06:01:24;;;;;;;3.07;1.70;;;17.40;99.90;;;;;;5023759;28;20211;-66
2022/05/27 06:03:51;;;;;;;1.80;1.63;;;17.30;99.90;;;;;;5021821;28;20708;-66
2022/05/27 06:06:19;;;;;;;2.27;1.60;;;17.40;99.90;;;;;;5029729;28;20200;-65
2022/05/27 06:08:46;;;;;;;3.33;1.57;;;17.30;99.90;;;;;;5024761;28;20203;-67
2022/05/27 06:11:14;;;;;;;3.37;1.60;;;17.40;99.90;;;;;;5027632;28;20265;-66
2022/05/27 06:13:41;;;;;;;3.17;1.40;;;17.50;99.90;;;;;;5024349;28;20592;-66
2022/05/27 06:16:09;;;;;;;7.27;1.50;;;17.50;99.90;;;;;;5032257;28;20199;-66
2022/05/27 06:18:36;;;;;;;2.20;1.70;;;17.60;99.90;;;;;;5023131;28;20215;-67
2022/05/27 06:21:03;;;;;;;3.17;1.40;;;17.60;99.90;;;;;;5022581;28;20641;-67
2022/05/27 06:23:30;;;;;;;2.10;1.63;;;17.50;99.90;;;;;;5014569;28;20454;-67
2022/05/27 06:26:04;;;;;;;2.40;1.60;;;17.60;99.90;;;;;;5021565;28;20192;-65
2022/05/27 06:34:25;;;;;;;3.63;1.23;;;17.80;99.90;;;;;;5015252;28;20721;-66
2022/05/27 06:37:00;;;;;;;1.27;1.13;;;17.90;99.90;;;;;;5024856;28;20235;-65
2022/05/27 06:39:27;;;;;;;6.83;1.40;;;17.90;99.90;;;;;;5021273;28;20286;-66
2022/05/27 06:42:05;;;;;;;2.40;1.23;;;17.90;99.90;;;;;;5027680;28;20223;-66
2022/05/27 06:44:51;;;;;;;1.30;1.07;;;18.00;99.90;;;;;;5013268;28;20220;-65
2022/05/27 06:47:19;;;;;;;1.10;0.90;;;18.00;99.90;;;;;;5025048;28;20215;-65
2022/05/27 06:49:45;;;;;;;1.10;1.00;;;18.20;99.90;;;;;;5021364;28;20206;-66
2022/05/27 06:52:13;;;;;;;1.07;0.97;;;18.10;99.90;;;;;;5013713;28;20208;-65
2022/05/27 06:54:41;;;;;;;1.53;1.00;;;18.20;99.90;;;;;;5018027;28;20234;-66
2022/05/27 06:57:09;;;;;;;2.77;1.10;;;18.20;99.90;;;;;;5006876;28;20832;-65
2022/05/27 06:59:36;;;;;;;1.53;1.00;;;18.20;99.90;;;;;;5019357;28;20196;-66
2022/05/27 07:02:04;;;;;;;2.27;1.20;;;18.20;99.90;;;;;;5027618;28;20219;-67
2022/05/27 07:04:31;;;;;;;2.83;1.23;;;18.20;99.90;;;;;;5013212;28;20217;-69
2022/05/27 07:06:58;;;;;;;3.67;1.10;;;18.20;99.90;;;;;;5018336;28;20210;-68
2022/05/27 07:09:25;;;;;;;2.17;1.10;;;18.00;99.90;;;;;;5021731;28;20670;-67
2022/05/27 07:11:55;;;;;;;3.83;1.10;;;18.20;99.90;;;;;;5015068;28;20215;-67
2022/05/27 07:14:22;;;;;;;1.57;0.97;;;18.10;99.90;;;;;;5010760;28;20215;-65
2022/05/27 07:16:49;;;;;;;3.00;1.17;;;18.20;99.90;;;;;;5012798;28;20195;-67
2022/05/27 07:19:37;;;;;;;1.30;1.00;;;18.20;99.90;;;;;;5014733;28;20199;-70
2022/05/27 07:22:06;;;;;;;2.83;0.90;;;18.50;99.90;;;;;;5017041;28;20858;-67
2022/05/27 07:24:33;;;;;;;2.37;1.20;;;18.50;99.90;;;;;;5017760;28;20239;-75
2022/05/27 07:27:00;;;;;;;1.63;1.07;;;18.60;99.90;;;;;;5021220;28;20203;-67
2022/05/27 07:29:26;;;;;;;2.83;1.10;;;18.70;99.90;;;;;;5024557;28;20257;-67
2022/05/27 07:31:53;;;;;;;2.60;0.90;;;18.70;99.90;;;;;;5015882;28;20551;-67
2022/05/27 07:34:20;;;;;;;2.80;1.20;;;18.90;99.90;;;;;;5022881;28;20569;-66
2022/05/27 07:36:46;;;;;;;2.37;1.33;;;18.80;99.90;;;;;;5027034;28;20597;-65
2022/05/27 07:39:13;;;;;;;1.70;1.03;;;18.80;99.90;;;;;;5017398;28;20214;-65
2022/05/27 07:41:40;;;;;;;1.53;1.13;;;19.00;99.90;;;;;;5008771;28;20952;-67
2022/05/27 07:44:07;;;;;;;2.37;0.87;;;19.00;99.90;;;;;;5007859;28;20223;-69
2022/05/27 07:46:37;;;;;;;2.57;1.33;;;19.30;99.90;;;;;;5013711;28;20199;-66
2022/05/27 07:49:07;;;;;;;1.93;0.90;;;19.50;99.90;;;;;;5010612;28;20604;-66
2022/05/27 07:51:53;;;;;;;1.63;1.03;;;19.80;99.90;;;;;;5018643;28;20340;-66
2022/05/27 07:54:20;;;;;;;1.57;1.00;;;19.80;99.90;;;;;;5014799;28;20219;-66
2022/05/27 07:56:46;;;;;;;2.93;1.10;;;19.80;99.90;;;;;;5013680;28;20208;-67
2022/05/27 07:59:13;;;;;;;2.03;1.20;;;19.70;99.90;;;;;;5013549;28;20655;-66
2022/05/27 08:01:40;;;;;;;1.20;0.77;;;19.50;99.90;;;;;;5013602;28;20199;-66
2022/05/27 08:04:08;;;;;;;1.60;1.30;;;19.60;99.90;;;;;;5013030;28;20587;-66
2022/05/27 08:06:36;;;;;;;2.37;1.10;;;19.70;99.90;;;;;;5016602;28;20196;-66
2022/05/27 08:09:10;;;;;;;1.07;0.97;;;19.60;99.90;;;;;;5014514;28;20661;-66
2022/05/27 08:11:37;;;;;;;2.60;1.20;;;19.30;99.90;;;;;;5010685;28;20211;-66
2022/05/27 08:14:05;;;;;;;1.40;0.93;;;19.40;99.90;;;;;;5007176;28;20337;-67
2022/05/27 08:16:33;;;;;;;3.73;1.10;;;19.50;99.90;;;;;;5013357;28;20204;-66
2022/05/27 08:19:01;;;;;;;1.77;1.03;;;19.50;99.90;;;;;;5011065;28;20291;-66
2022/05/27 08:21:27;;;;;;;2.40;0.90;;;19.50;99.90;;;;;;5017652;28;20202;-66
2022/05/27 08:23:54;;;;;;;2.67;1.00;;;19.80;99.90;;;;;;5018476;28;20235;-66
2022/05/27 08:26:21;;;;;;;0.73;0.73;;;20.20;99.90;;;;;;5015918;28;20195;-66
2022/05/27 08:28:47;;;;;;;2.05;0.90;;;20.50;99.90;;;;;;5016021;28;20196;-66
2022/05/27 08:31:14;;;;;;;1.13;0.90;;;20.70;99.90;;;;;;5014350;28;21642;-66
2022/05/27 08:39:13;;;;;;;1.70;1.20;;;20.30;99.90;;;;;;5003158;28;20200;-66
2022/05/27 08:41:51;;;;;;;2.30;1.07;;;20.40;99.90;;;;;;5010509;28;20197;-65
2022/05/27 08:44:34;;;;;;;3.67;1.10;;;20.20;99.90;;;;;;5012403;28;20232;-65
2022/05/27 08:47:31;;;;;;;2.63;1.00;;;19.90;99.90;;;;;;5014184;28;20199;-65
2022/05/27 08:50:19;;;;;;;2.13;0.90;;;19.80;99.90;;;;;;5006648;28;20212;-65
2022/05/27 08:53:06;;;;;;;1.00;0.90;;;19.70;99.90;;;;;;5003924;28;20208;-65
2022/05/27 09:01:34;;;;;;;1.70;1.00;;;19.60;99.90;;;;;;5009038;28;20199;-68
2022/05/27 09:04:24;;;;;;;2.27;1.10;;;19.50;99.90;;;;;;5005023;28;20223;-68
2022/05/27 09:06:57;;;;;;;1.53;1.10;;;19.50;99.90;;;;;;5003694;28;20192;-68
2022/05/27 09:09:29;;;;;;;0.77;0.63;;;19.60;99.90;;;;;;5003997;28;20192;-68
2022/05/27 09:12:14;;;;;;;1.00;0.90;;;20.00;99.90;;;;;;5004508;28;20207;-68
2022/05/27 09:14:48;;;;;;;1.80;0.97;;;20.30;99.90;;;;;;5006043;28;20217;-68
2022/05/27 09:17:34;;;;;;;1.37;0.90;;;20.30;99.90;;;;;;5007160;28;20196;-67
2022/05/27 09:20:39;;;;;;;0.87;0.80;;;20.20;99.90;;;;;;5012591;28;20669;-66
2022/05/27 09:23:23;;;;;;;2.13;0.93;;;20.10;99.90;;;;;;5011291;28;20210;-67
2022/05/27 09:26:28;;;;;;;2.30;1.00;;;20.30;99.90;;;;;;5006475;28;20698;-67
2022/05/27 09:29:43;;;;;;;2.87;1.00;;;20.00;99.90;;;;;;4999577;28;20211;-66
2022/05/27 09:32:33;;;;;;;2.40;1.10;;;20.20;99.90;;;;;;5040895;28;20207;-67
2022/05/27 09:35:13;;;;;;;2.87;0.90;;;20.70;99.90;;;;;;5011467;28;21388;-67
2022/05/27 09:38:02;;;;;;;1.85;0.90;;;20.50;99.90;;;;;;5007765;28;20630;-67
2022/05/27 09:40:42;;;;;;;2.25;1.50;;;20.90;99.90;;;;;;5008640;28;20203;-67
2022/05/27 09:43:21;;;;;;;1.10;0.95;;;21.20;99.90;;;;;;5005444;28;20237;-66
2022/05/27 09:46:01;;;;;;;1.35;1.02;;;21.20;99.90;;;;;;5011253;28;20510;-67
2022/05/27 09:48:28;;;;;;;1.85;1.20;;;21.60;99.90;;;;;;5011926;28;20650;-69
2022/05/27 09:51:00;;;;;;;1.38;1.00;;;21.50;99.90;;;;;;5008996;28;20195;-69
2022/05/27 09:53:33;;;;;;;1.20;0.90;;;21.60;99.90;;;;;;5007377;28;20211;-69
2022/05/27 09:56:04;;;;;;;5.55;1.00;;;21.70;99.90;;;;;;5009830;28;20215;-68
2022/05/27 09:58:38;;;;;;;1.52;1.00;;;21.90;99.90;;;;;;5010633;28;20203;-70
2022/05/27 10:01:26;;;;;;;0.95;0.75;;;22.20;99.90;;;;;;5012374;28;20200;-67
2022/05/27 10:04:06;;;;;;;0.93;0.70;;;22.10;99.90;;;;;;5009253;28;20269;-67
2022/05/27 10:06:35;;;;;;;1.35;0.80;;;22.00;99.90;;;;;;5011284;28;20196;-67
2022/05/27 10:09:25;;;;;;;1.33;0.80;;;21.90;99.90;;;;;;5013547;28;20206;-67
2022/05/27 10:11:53;;;;;;;1.15;0.80;;;22.10;99.90;;;;;;5007958;28;20204;-66
2022/05/27 10:14:50;;;;;;;0.57;0.57;;;22.00;99.90;;;;;;5011127;28;20326;-68
2022/05/27 10:17:29;;;;;;;0.90;0.70;;;22.00;99.90;;;;;;5021877;28;20207;-68
2022/05/27 10:20:18;;;;;;;1.23;0.90;;;21.70;99.90;;;;;;5006918;28;20207;-68
2022/05/27 10:22:59;;;;;;;1.88;1.50;;;21.90;99.90;;;;;;5011615;28;20210;-66
2022/05/27 10:25:38;;;;;;;2.08;1.00;;;21.50;99.90;;;;;;5014389;28;20590;-66
2022/05/27 10:28:07;;;;;;;2.55;0.70;;;21.50;99.90;;;;;;5010781;28;20630;-66
2022/05/27 10:30:36;;;;;;;0.57;0.57;;;21.50;99.90;;;;;;5019196;28;20196;-66
2022/05/27 10:33:35;;;;;;;1.20;0.70;;;21.40;99.90;;;;;;5013221;28;20199;-66
2022/05/27 10:36:02;;;;;;;1.25;0.98;;;21.50;99.90;;;;;;5018602;28;20198;-67
2022/05/27 10:39:02;;;;;;;3.63;1.05;;;21.50;99.90;;;;;;5014753;28;20223;-67
2022/05/27 10:41:44;;;;;;;1.52;0.88;;;21.60;99.90;;;;;;5019388;28;20222;-67
2022/05/27 10:44:37;;;;;;;0.50;0.50;;;21.60;99.90;;;;;;5021206;28;20227;-67
2022/05/27 10:47:12;;;;;;;0.50;0.50;;;21.40;99.90;;;;;;5020261;28;20204;-67
2022/05/27 10:49:51;;;;;;;0.50;0.50;;;21.00;99.90;;;;;;5022856;28;20698;-66
2022/05/27 10:52:56;;;;;;;0.70;0.60;;;20.90;99.90;;;;;;5018796;28;20194;-67
2022/05/27 10:55:38;;;;;;;0.50;0.50;;;21.20;99.90;;;;;;5017521;28;20808;-68
2022/05/27 11:04:39;;;;;;;0.70;0.70;;;21.60;99.90;;;;;;5020796;28;20223;-67
2022/05/27 11:07:05;;;;;;;1.95;0.68;;;21.80;99.90;;;;;;5014214;28;20188;-68
2022/05/27 11:09:51;;;;;;;0.82;0.73;;;21.50;99.90;;;;;;5019077;28;20202;-69
2022/05/27 11:12:26;;;;;;;0.60;0.60;;;21.40;99.90;;;;;;5019906;28;20230;-69
2022/05/27 11:15:18;;;;;;;1.10;0.63;;;21.30;99.90;;;;;;5016819;28;20230;-68
2022/05/27 11:18:07;;;;;;;0.60;0.60;;;21.30;99.90;;;;;;5012443;28;20211;-68
2022/05/27 11:20:45;;;;;;;1.77;0.60;;;21.60;99.90;;;;;;5020742;28;20674;-69
2022/05/27 11:23:24;;;;;;;0.43;0.40;;;22.10;99.90;;;;;;5016919;28;20223;-67
2022/05/27 11:26:18;;;;;;;0.40;0.40;;;22.70;99.90;;;;;;5015118;28;20579;-68
2022/05/27 11:28:53;;;;;;;0.73;0.50;;;22.10;99.90;;;;;;5018776;28;20561;-67
2022/05/27 11:31:56;;;;;;;0.88;0.50;;;22.10;99.90;;;;;;5017677;28;20278;-67
2022/05/27 11:34:43;;;;;;;0.40;0.40;;;22.30;99.90;;;;;;5011400;28;20722;-70
2022/05/27 11:37:15;;;;;;;0.52;0.45;;;21.90;99.90;;;;;;5017912;28;20276;-67
2022/05/27 11:40:20;;;;;;;0.73;0.30;;;21.70;99.90;;;;;;5010442;28;20192;-67
2022/05/27 11:43:07;;;;;;;2.65;0.40;;;21.20;99.90;;;;;;5012048;28;20200;-67
2022/05/27 11:45:35;;;;;;;0.30;0.30;;;20.80;99.90;;;;;;5010153;28;20249;-68
2022/05/27 11:48:15;;;;;;;0.57;0.50;;;20.10;99.90;;;;;;5023398;28;20204;-66
2022/05/27 11:51:19;;;;;;;2.43;0.80;;;19.40;99.90;;;;;;5008333;28;20195;-69
2022/05/27 11:54:04;;;;;;;0.90;0.90;;;18.20;99.90;;;;;;5014452;28;20220;-66
2022/05/27 11:56:49;;;;;;;0.93;0.90;;;17.60;99.90;;;;;;5016102;28;20199;-66
2022/05/27 11:59:29;;;;;;;2.30;1.20;;;17.10;99.90;;;;;;5010304;28;20208;-66
2022/05/27 12:02:01;;;;;;;1.53;1.10;;;17.10;99.90;;;;;;5011446;28;20226;-66
2022/05/27 12:04:35;;;;;;;1.60;1.00;;;17.30;99.90;;;;;;5012230;28;20215;-66
2022/05/27 12:07:21;;;;;;;1.77;0.93;;;17.50;99.90;;;;;;5015603;28;20202;-66
2022/05/27 12:09:55;;;;;;;0.90;0.80;;;17.80;99.90;;;;;;5013711;28;20191;-66
2022/05/27 12:12:37;;;;;;;1.00;0.80;;;18.00;99.90;;;;;;5010352;28;20207;-66
2022/05/27 12:15:10;;;;;;;0.90;0.80;;;18.00;99.90;;;;;;5014932;28;20570;-65
2022/05/27 12:17:48;;;;;;;1.20;1.00;;;17.80;99.90;;;;;;5010629;28;20203;-65
2022/05/27 12:20:23;;;;;;;1.33;1.10;;;17.60;99.90;;;;;;5010493;28;20307;-65
2022/05/27 12:22:53;;;;;;;1.50;1.10;;;17.70;99.90;;;;;;5008918;28;20240;-65
2022/05/27 12:25:26;;;;;;;1.00;0.90;;;17.80;99.90;;;;;;5012922;28;20222;-65
2022/05/27 12:27:55;;;;;;;1.23;1.03;;;18.00;99.90;;;;;;5011260;28;20200;-65
2022/05/27 12:30:39;;;;;;;1.10;1.00;;;18.40;99.90;;;;;;5000983;28;20301;-66
2022/05/27 12:33:09;;;;;;;1.27;1.03;;;18.70;99.90;;;;;;5011766;28;20265;-66
2022/05/27 12:35:36;;;;;;;1.80;1.10;;;19.00;99.90;;;;;;5007621;28;20223;-65
2022/05/27 12:38:36;;;;;;;1.77;1.13;;;19.10;99.90;;;;;;5008867;28;20295;-65
2022/05/27 12:41:06;;;;;;;1.33;1.13;;;18.90;99.90;;;;;;4993634;28;20663;-66
2022/05/27 12:44:25;;;;;;;1.83;1.47;;;19.00;99.90;;;;;;5011056;28;20227;-65
2022/05/27 12:47:01;;;;;;;1.67;1.57;;;19.10;99.90;;;;;;5008660;28;20807;-65
2022/05/27 12:49:36;;;;;;;2.10;1.50;;;19.00;99.90;;;;;;5014451;28;20232;-65
2022/05/27 12:52:06;;;;;;;1.70;1.60;;;19.10;99.90;;;;;;5016176;28;20832;-68
2022/05/27 12:54:58;;;;;;;3.20;2.03;;;19.00;99.90;;;;;;5009083;28;20215;-65
2022/05/27 13:00:55;;;;;;;2.47;1.70;;;19.10;99.90;;;;;;5007062;28;20218;-69
2022/05/27 13:03:31;;;;;;;2.03;1.73;;;19.30;99.90;;;;;;5010045;28;20215;-68
2022/05/27 13:06:26;;;;;;;2.10;1.77;;;19.20;99.90;;;;;;5014589;28;20419;-69
2022/05/27 13:08:57;;;;;;;3.00;1.90;;;19.40;99.90;;;;;;4994633;28;20196;-67
2022/05/27 13:11:24;;;;;;;3.43;1.80;;;19.80;99.90;;;;;;5004252;28;20506;-66
2022/05/27 13:14:06;;;;;;;3.03;1.67;;;20.30;99.90;;;;;;5012051;28;20721;-67
2022/05/27 13:17:15;;;;;;;2.97;1.73;;;21.20;99.90;;;;;;5011440;28;20642;-67
2022/05/27 13:19:48;;;;;;;2.30;1.70;;;21.80;99.90;;;;;;5011801;28;20691;-67
2022/05/27 13:22:37;;;;;;;1.85;1.63;;;22.00;99.90;;;;;;5000714;28;20224;-67
2022/05/27 13:25:19;;;;;;;2.22;2.03;;;22.30;99.90;;;;;;5002835;28;20529;-69
2022/05/27 13:27:47;;;;;;;3.10;2.08;;;21.90;99.90;;;;;;5002299;28;20204;-68
2022/05/27 13:30:43;;;;;;;2.03;1.83;;;21.80;99.90;;;;;;5010342;28;20573;-68
2022/05/27 13:33:12;;;;;;;1.60;1.50;;;21.80;99.90;;;;;;4991102;28;20213;-69
2022/05/27 13:35:45;;;;;;;1.60;1.50;;;21.70;99.90;;;;;;5004016;28;20235;-68
2022/05/27 13:38:17;;;;;;;2.20;1.80;;;21.90;99.90;;;;;;5008072;28;20207;-68
2022/05/27 13:40:45;;;;;;;2.63;1.50;;;22.00;99.90;;;;;;5003589;28;20200;-68
2022/05/27 13:43:27;;;;;;;3.08;1.77;;;22.20;99.90;;;;;;4998574;28;20204;-69
2022/05/27 13:46:06;;;;;;;3.42;1.50;;;22.30;99.90;;;;;;5007090;28;20306;-68
2022/05/27 13:48:40;;;;;;;1.50;1.38;;;22.20;99.90;;;;;;5013537;28;20203;-67
2022/05/27 13:51:11;;;;;;;1.50;1.40;;;22.20;99.90;;;;;;5012308;28;20571;-69
2022/05/27 13:53:40;;;;;;;1.63;1.48;;;21.90;99.90;;;;;;5006904;28;20570;-69
2022/05/27 13:56:18;;;;;;;2.30;1.55;;;22.10;99.90;;;;;;5024366;28;20195;-68
2022/05/27 13:58:58;;;;;;;2.22;1.60;;;22.20;99.90;;;;;;5012642;28;20188;-70
2022/05/27 14:01:49;;;;;;;2.22;1.90;;;22.10;99.90;;;;;;5014022;28;20298;-69